sensor_id;sensor_type;location;lat;lon;timestamp;pressure;altitude;pressure_sealevel;temperature;humidity
26635;BME280;14490;54.208;37.686;2023-04-08T00:01:10;100111.06;;;5.49;80.21
26635;BME280;14490;54.208;37.686;2023-04-08T00:03:38;100098.03;;;5.43;80.68
26635;BME280;14490;54.208;37.686;2023-04-08T00:06:05;100101.41;;;5.47;80.69
26635;BME280;14490;54.208;37.686;2023-04-08T00:08:33;100107.13;;;5.39;81.76
26635;BME280;14490;54.208;37.686;2023-04-08T00:11:00;100105.31;;;5.40;82.25
26635;BME280;14490;54.208;37.686;2023-04-08T00:13:27;100094.09;;;5.33;81.95
26635;BME280;14490;54.208;37.686;2023-04-08T00:15:55;100101.88;;;5.38;82.10
26635;BME280;14490;54.208;37.686;2023-04-08T00:18:23;100085.63;;;5.25;81.92
26635;BME280;14490;54.208;37.686;2023-04-08T00:20:51;100103.81;;;5.34;82.20
26635;BME280;14490;54.208;37.686;2023-04-08T00:23:19;100103.13;;;5.31;82.49
26635;BME280;14490;54.208;37.686;2023-04-08T00:25:48;100109.38;;;5.30;82.87
26635;BME280;14490;54.208;37.686;2023-04-08T00:28:15;100107.72;;;5.27;83.46
26635;BME280;14490;54.208;37.686;2023-04-08T00:30:43;100103.41;;;5.25;84.07
26635;BME280;14490;54.208;37.686;2023-04-08T00:33:10;100081.06;;;5.10;84.11
26635;BME280;14490;54.208;37.686;2023-04-08T00:35:39;100092.34;;;5.15;84.79
26635;BME280;14490;54.208;37.686;2023-04-08T00:38:06;100104.66;;;5.18;84.95
26635;BME280;14490;54.208;37.686;2023-04-08T00:40:34;100104.66;;;5.18;85.52
26635;BME280;14490;54.208;37.686;2023-04-08T00:43:01;100106.59;;;5.14;85.97
26635;BME280;14490;54.208;37.686;2023-04-08T00:45:28;100110.28;;;5.12;86.10
26635;BME280;14490;54.208;37.686;2023-04-08T00:47:56;100111.16;;;5.12;86.66
26635;BME280;14490;54.208;37.686;2023-04-08T00:50:23;100087.69;;;5.02;87.17
26635;BME280;14490;54.208;37.686;2023-04-08T00:52:52;100113.06;;;5.10;87.13
26635;BME280;14490;54.208;37.686;2023-04-08T00:55:19;100113.22;;;5.07;87.64
26635;BME280;14490;54.208;37.686;2023-04-08T00:57:47;100111.47;;;5.06;87.75
26635;BME280;14490;54.208;37.686;2023-04-08T01:00:15;100114.91;;;5.08;87.86
26635;BME280;14490;54.208;37.686;2023-04-08T01:02:47;100118.69;;;5.04;88.63
26635;BME280;14490;54.208;37.686;2023-04-08T01:05:22;100070.16;;;4.79;89.33
26635;BME280;14490;54.208;37.686;2023-04-08T01:07:57;100115.53;;;4.96;90.18
26635;BME280;14490;54.208;37.686;2023-04-08T01:10:28;100122.59;;;4.97;90.75
26635;BME280;14490;54.208;37.686;2023-04-08T01:12:59;100119.94;;;4.97;91.24
26635;BME280;14490;54.208;37.686;2023-04-08T01:15:31;100117.41;;;4.94;91.43
26635;BME280;14490;54.208;37.686;2023-04-08T01:18:04;100111.28;;;4.92;91.96
26635;BME280;14490;54.208;37.686;2023-04-08T01:20:33;100088.88;;;4.77;92.13
26635;BME280;14490;54.208;37.686;2023-04-08T01:23:06;100047.66;;;4.49;92.74
26635;BME280;14490;54.208;37.686;2023-04-08T01:25:37;100105.59;;;4.81;92.85
26635;BME280;14490;54.208;37.686;2023-04-08T01:28:10;100114.94;;;4.89;93.52
26635;BME280;14490;54.208;37.686;2023-04-08T01:30:40;100110.94;;;4.81;94.22
26635;BME280;14490;54.208;37.686;2023-04-08T01:33:11;100093.69;;;4.71;95.14
26635;BME280;14490;54.208;37.686;2023-04-08T01:35:40;100113.69;;;4.79;95.63
26635;BME280;14490;54.208;37.686;2023-04-08T01:38:09;100110.34;;;4.74;96.06
26635;BME280;14490;54.208;37.686;2023-04-08T01:40:41;100118.31;;;4.76;96.93
26635;BME280;14490;54.208;37.686;2023-04-08T01:43:12;100030.97;;;4.26;98.05
26635;BME280;14490;54.208;37.686;2023-04-08T01:45:41;100115.94;;;4.70;98.06
26635;BME280;14490;54.208;37.686;2023-04-08T01:48:11;100115.16;;;4.68;98.58
26635;BME280;14490;54.208;37.686;2023-04-08T01:50:40;100115.28;;;4.65;99.36
26635;BME280;14490;54.208;37.686;2023-04-08T01:53:10;100118.88;;;4.64;99.84
26635;BME280;14490;54.208;37.686;2023-04-08T01:55:39;100111.66;;;4.66;100.00
26635;BME280;14490;54.208;37.686;2023-04-08T01:58:14;100092.09;;;4.48;100.00
26635;BME280;14490;54.208;37.686;2023-04-08T02:00:46;100104.50;;;4.49;100.00
26635;BME280;14490;54.208;37.686;2023-04-08T02:03:16;100025.09;;;4.01;100.00
26635;BME280;14490;54.208;37.686;2023-04-08T02:05:44;100117.28;;;4.60;100.00
26635;BME280;14490;54.208;37.686;2023-04-08T02:08:12;100125.53;;;4.55;100.00
26635;BME280;14490;54.208;37.686;2023-04-08T02:10:39;100120.34;;;4.52;100.00
26635;BME280;14490;54.208;37.686;2023-04-08T02:13:07;100125.66;;;4.52;100.00
26635;BME280;14490;54.208;37.686;2023-04-08T02:15:37;100111.75;;;4.46;100.00
26635;BME280;14490;54.208;37.686;2023-04-08T02:18:12;100099.75;;;4.37;100.00
26635;BME280;14490;54.208;37.686;2023-04-08T02:20:44;100063.78;;;4.08;100.00
26635;BME280;14490;54.208;37.686;2023-04-08T02:23:17;100121.78;;;4.40;100.00
26635;BME280;14490;54.208;37.686;2023-04-08T02:25:46;100128.53;;;4.48;100.00
26635;BME280;14490;54.208;37.686;2023-04-08T02:28:17;100082.88;;;4.18;100.00
26635;BME280;14490;54.208;37.686;2023-04-08T02:30:48;100112.19;;;4.36;100.00
26635;BME280;14490;54.208;37.686;2023-04-08T02:33:19;100131.56;;;4.40;100.00
26635;BME280;14490;54.208;37.686;2023-04-08T02:35:48;100127.53;;;4.31;100.00
26635;BME280;14490;54.208;37.686;2023-04-08T02:38:19;100131.78;;;4.35;100.00
26635;BME280;14490;54.208;37.686;2023-04-08T02:40:49;100136.16;;;4.36;100.00
26635;BME280;14490;54.208;37.686;2023-04-08T02:43:16;100131.13;;;4.30;100.00
26635;BME280;14490;54.208;37.686;2023-04-08T02:45:45;100137.38;;;4.29;100.00
26635;BME280;14490;54.208;37.686;2023-04-08T02:48:13;100118.28;;;4.20;100.00
26635;BME280;14490;54.208;37.686;2023-04-08T02:50:40;100152.56;;;4.27;100.00
26635;BME280;14490;54.208;37.686;2023-04-08T02:53:08;100132.19;;;4.26;100.00
26635;BME280;14490;54.208;37.686;2023-04-08T02:55:35;100131.59;;;4.20;100.00
26635;BME280;14490;54.208;37.686;2023-04-08T02:58:04;100118.00;;;4.07;100.00
26635;BME280;14490;54.208;37.686;2023-04-08T03:00:31;100128.09;;;4.19;100.00
26635;BME280;14490;54.208;37.686;2023-04-08T03:03:00;100138.75;;;4.19;100.00
26635;BME280;14490;54.208;37.686;2023-04-08T03:05:27;100117.00;;;4.10;100.00
26635;BME280;14490;54.208;37.686;2023-04-08T03:07:54;100140.03;;;4.29;100.00
26635;BME280;14490;54.208;37.686;2023-04-08T03:10:22;100142.56;;;4.32;100.00
26635;BME280;14490;54.208;37.686;2023-04-08T03:12:49;100147.75;;;4.35;100.00
26635;BME280;14490;54.208;37.686;2023-04-08T03:15:17;100152.03;;;4.39;100.00
26635;BME280;14490;54.208;37.686;2023-04-08T03:17:44;100151.75;;;4.46;100.00
26635;BME280;14490;54.208;37.686;2023-04-08T03:20:13;100157.06;;;4.46;100.00
26635;BME280;14490;54.208;37.686;2023-04-08T03:22:40;100151.59;;;4.49;100.00
26635;BME280;14490;54.208;37.686;2023-04-08T03:25:08;100145.81;;;4.39;100.00
26635;BME280;14490;54.208;37.686;2023-04-08T03:27:36;100146.41;;;4.46;100.00
26635;BME280;14490;54.208;37.686;2023-04-08T03:30:04;100144.53;;;4.48;100.00
26635;BME280;14490;54.208;37.686;2023-04-08T03:32:32;100127.13;;;4.40;100.00
26635;BME280;14490;54.208;37.686;2023-04-08T03:34:59;100161.81;;;4.58;100.00
26635;BME280;14490;54.208;37.686;2023-04-08T03:37:28;100157.13;;;4.63;100.00
26635;BME280;14490;54.208;37.686;2023-04-08T03:39:56;100131.72;;;4.56;100.00
26635;BME280;14490;54.208;37.686;2023-04-08T03:42:23;100146.28;;;4.67;100.00
26635;BME280;14490;54.208;37.686;2023-04-08T03:44:51;100146.28;;;4.67;100.00
26635;BME280;14490;54.208;37.686;2023-04-08T03:47:19;100152.19;;;4.74;100.00
26635;BME280;14490;54.208;37.686;2023-04-08T03:49:46;100156.41;;;4.78;100.00
26635;BME280;14490;54.208;37.686;2023-04-08T03:52:14;100152.03;;;4.77;100.00
26635;BME280;14490;54.208;37.686;2023-04-08T03:54:42;100157.06;;;4.83;100.00
26635;BME280;14490;54.208;37.686;2023-04-08T03:57:10;100153.44;;;4.84;100.00
26635;BME280;14490;54.208;37.686;2023-04-08T03:59:37;100164.50;;;4.95;100.00
26635;BME280;14490;54.208;37.686;2023-04-08T04:02:05;100160.66;;;5.01;100.00
26635;BME280;14490;54.208;37.686;2023-04-08T04:04:33;100159.34;;;5.09;100.00
26635;BME280;14490;54.208;37.686;2023-04-08T04:07:01;100156.53;;;5.12;100.00
26635;BME280;14490;54.208;37.686;2023-04-08T04:09:28;100164.22;;;5.18;100.00
26635;BME280;14490;54.208;37.686;2023-04-08T04:11:57;100143.19;;;5.12;100.00
26635;BME280;14490;54.208;37.686;2023-04-08T04:14:25;100167.47;;;5.25;100.00
26635;BME280;14490;54.208;37.686;2023-04-08T04:16:52;100170.53;;;5.34;100.00
26635;BME280;14490;54.208;37.686;2023-04-08T04:19:19;100160.81;;;5.33;100.00
26635;BME280;14490;54.208;37.686;2023-04-08T04:21:47;100174.25;;;5.49;100.00
26635;BME280;14490;54.208;37.686;2023-04-08T04:24:14;100173.78;;;5.58;100.00
26635;BME280;14490;54.208;37.686;2023-04-08T04:26:41;100185.34;;;5.59;100.00
26635;BME280;14490;54.208;37.686;2023-04-08T04:29:10;100170.03;;;5.62;100.00
26635;BME280;14490;54.208;37.686;2023-04-08T04:31:37;100169.94;;;5.64;100.00
26635;BME280;14490;54.208;37.686;2023-04-08T04:34:05;100184.56;;;5.74;100.00
26635;BME280;14490;54.208;37.686;2023-04-08T04:36:32;100173.88;;;5.74;100.00
26635;BME280;14490;54.208;37.686;2023-04-08T04:39:00;100180.09;;;5.74;100.00
26635;BME280;14490;54.208;37.686;2023-04-08T04:41:27;100168.69;;;5.71;100.00
26635;BME280;14490;54.208;37.686;2023-04-08T04:43:54;100166.09;;;5.69;100.00
26635;BME280;14490;54.208;37.686;2023-04-08T04:46:23;100185.66;;;5.87;100.00
26635;BME280;14490;54.208;37.686;2023-04-08T04:48:50;100186.94;;;5.97;100.00
26635;BME280;14490;54.208;37.686;2023-04-08T04:51:18;100118.19;;;5.66;100.00
26635;BME280;14490;54.208;37.686;2023-04-08T04:53:53;100197.19;;;6.22;100.00
26635;BME280;14490;54.208;37.686;2023-04-08T04:56:20;100144.41;;;6.10;100.00
26635;BME280;14490;54.208;37.686;2023-04-08T04:58:47;100187.81;;;6.47;100.00
26635;BME280;14490;54.208;37.686;2023-04-08T05:01:15;100194.53;;;6.54;100.00
26635;BME280;14490;54.208;37.686;2023-04-08T05:03:43;100183.34;;;6.64;100.00
26635;BME280;14490;54.208;37.686;2023-04-08T05:06:11;100178.00;;;6.64;100.00
26635;BME280;14490;54.208;37.686;2023-04-08T05:08:38;100198.03;;;6.88;100.00
26635;BME280;14490;54.208;37.686;2023-04-08T05:11:08;100178.53;;;6.86;100.00
26635;BME280;14490;54.208;37.686;2023-04-08T05:13:36;100195.91;;;7.10;100.00
26635;BME280;14490;54.208;37.686;2023-04-08T05:16:03;100185.09;;;7.11;100.00
26635;BME280;14490;54.208;37.686;2023-04-08T05:18:31;100184.56;;;7.21;100.00
26635;BME280;14490;54.208;37.686;2023-04-08T05:21:00;100189.41;;;7.30;100.00
26635;BME280;14490;54.208;37.686;2023-04-08T05:23:27;100185.19;;;7.41;100.00
26635;BME280;14490;54.208;37.686;2023-04-08T05:25:54;100192.31;;;7.56;100.00
26635;BME280;14490;54.208;37.686;2023-04-08T05:28:22;100193.66;;;7.63;100.00
26635;BME280;14490;54.208;37.686;2023-04-08T05:30:50;100114.63;;;7.27;100.00
26635;BME280;14490;54.208;37.686;2023-04-08T05:33:18;100205.81;;;7.85;100.00
26635;BME280;14490;54.208;37.686;2023-04-08T05:35:45;100119.56;;;7.48;100.00
26635;BME280;14490;54.208;37.686;2023-04-08T05:38:14;100204.94;;;8.14;100.00
26635;BME280;14490;54.208;37.686;2023-04-08T05:40:41;100204.63;;;8.34;100.00
26635;BME280;14490;54.208;37.686;2023-04-08T05:43:09;100204.34;;;8.53;100.00
26635;BME280;14490;54.208;37.686;2023-04-08T05:45:36;100202.63;;;8.66;100.00
26635;BME280;14490;54.208;37.686;2023-04-08T05:48:03;100209.41;;;8.86;100.00
26635;BME280;14490;54.208;37.686;2023-04-08T05:50:31;100166.13;;;8.77;100.00
26635;BME280;14490;54.208;37.686;2023-04-08T05:52:58;100195.97;;;9.00;100.00
26635;BME280;14490;54.208;37.686;2023-04-08T05:55:28;100201.81;;;9.06;100.00
26635;BME280;14490;54.208;37.686;2023-04-08T06:01:35;100061.91;;;8.43;100.00
26635;BME280;14490;54.208;37.686;2023-04-08T06:04:03;100177.38;;;9.11;100.00
26635;BME280;14490;54.208;37.686;2023-04-08T06:06:36;100200.22;;;9.30;100.00
26635;BME280;14490;54.208;37.686;2023-04-08T06:09:04;100200.13;;;9.32;100.00
26635;BME280;14490;54.208;37.686;2023-04-08T06:11:33;100192.44;;;9.40;100.00
26635;BME280;14490;54.208;37.686;2023-04-08T06:14:00;100196.66;;;9.44;100.00
26635;BME280;14490;54.208;37.686;2023-04-08T06:16:28;100199.44;;;9.69;100.00
26635;BME280;14490;54.208;37.686;2023-04-08T06:18:55;100192.72;;;9.89;100.00
26635;BME280;14490;54.208;37.686;2023-04-08T06:21:22;100180.34;;;9.86;100.00
26635;BME280;14490;54.208;37.686;2023-04-08T06:23:51;100193.81;;;9.99;100.00
26635;BME280;14490;54.208;37.686;2023-04-08T06:26:18;100190.72;;;10.05;100.00
26635;BME280;14490;54.208;37.686;2023-04-08T06:28:47;100194.47;;;10.03;100.00
26635;BME280;14490;54.208;37.686;2023-04-08T06:31:14;100186.06;;;10.07;100.00
26635;BME280;14490;54.208;37.686;2023-04-08T06:33:41;100197.09;;;10.17;100.00
26635;BME280;14490;54.208;37.686;2023-04-08T06:36:09;100168.13;;;10.08;100.00
26635;BME280;14490;54.208;37.686;2023-04-08T06:38:37;100172.97;;;10.15;98.82
26635;BME280;14490;54.208;37.686;2023-04-08T06:41:05;100196.34;;;10.27;97.07
26635;BME280;14490;54.208;37.686;2023-04-08T06:43:34;100197.56;;;10.36;99.12
26635;BME280;14490;54.208;37.686;2023-04-08T06:46:03;100196.25;;;10.41;98.41
26635;BME280;14490;54.208;37.686;2023-04-08T06:48:31;100203.69;;;10.38;96.23
26635;BME280;14490;54.208;37.686;2023-04-08T06:50:59;100195.50;;;10.27;94.04
26635;BME280;14490;54.208;37.686;2023-04-08T06:53:27;100184.47;;;10.05;90.45
26635;BME280;14490;54.208;37.686;2023-04-08T06:55:55;100189.06;;;9.90;88.22
26635;BME280;14490;54.208;37.686;2023-04-08T06:58:23;100194.44;;;9.90;88.73
26635;BME280;14490;54.208;37.686;2023-04-08T07:00:50;100202.63;;;10.01;88.71
26635;BME280;14490;54.208;37.686;2023-04-08T07:03:21;100196.22;;;10.16;89.39
26635;BME280;14490;54.208;37.686;2023-04-08T07:05:52;100204.09;;;10.32;90.74
26635;BME280;14490;54.208;37.686;2023-04-08T07:08:19;100203.47;;;10.28;87.85
26635;BME280;14490;54.208;37.686;2023-04-08T07:10:47;100183.50;;;10.06;83.84
26635;BME280;14490;54.208;37.686;2023-04-08T07:13:17;100161.84;;;9.95;81.48
26635;BME280;14490;54.208;37.686;2023-04-08T07:15:52;100193.88;;;10.37;82.75
26635;BME280;14490;54.208;37.686;2023-04-08T07:18:24;100199.69;;;10.56;82.22
26635;BME280;14490;54.208;37.686;2023-04-08T07:20:51;100189.59;;;10.60;79.92
26635;BME280;14490;54.208;37.686;2023-04-08T07:23:28;100197.09;;;10.67;78.16
26635;BME280;14490;54.208;37.686;2023-04-08T07:26:04;100170.19;;;10.67;78.82
26635;BME280;14490;54.208;37.686;2023-04-08T07:28:31;100179.97;;;10.81;76.56
26635;BME280;14490;54.208;37.686;2023-04-08T07:31:16;100148.13;;;10.62;71.99
26635;BME280;14490;54.208;37.686;2023-04-08T07:33:50;100176.00;;;10.61;70.33
26635;BME280;14490;54.208;37.686;2023-04-08T07:36:20;100183.78;;;10.66;68.72
26635;BME280;14490;54.208;37.686;2023-04-08T07:38:53;100181.88;;;10.91;70.04
26635;BME280;14490;54.208;37.686;2023-04-08T07:41:28;100180.94;;;10.92;68.17
26635;BME280;14490;54.208;37.686;2023-04-08T07:44:03;100185.66;;;11.02;68.19
26635;BME280;14490;54.208;37.686;2023-04-08T07:46:36;100162.16;;;11.04;68.99
26635;BME280;14490;54.208;37.686;2023-04-08T07:49:10;100184.75;;;11.14;65.71
26635;BME280;14490;54.208;37.686;2023-04-08T07:51:41;100162.97;;;11.17;66.04
26635;BME280;14490;54.208;37.686;2023-04-08T07:54:10;100180.75;;;11.43;66.05
26635;BME280;14490;54.208;37.686;2023-04-08T07:56:43;100176.19;;;11.56;65.90
26635;BME280;14490;54.208;37.686;2023-04-08T07:59:19;100176.25;;;11.67;64.05
26635;BME280;14490;54.208;37.686;2023-04-08T08:01:51;100177.91;;;11.70;63.14
26635;BME280;14490;54.208;37.686;2023-04-08T08:04:22;100182.22;;;11.83;63.09
26635;BME280;14490;54.208;37.686;2023-04-08T08:06:52;100191.81;;;11.87;62.20
26635;BME280;14490;54.208;37.686;2023-04-08T08:09:22;100181.22;;;11.73;59.67
26635;BME280;14490;54.208;37.686;2023-04-08T08:11:50;100190.72;;;11.66;59.48
26635;BME280;14490;54.208;37.686;2023-04-08T08:14:20;100177.09;;;11.44;59.26
26635;BME280;14490;54.208;37.686;2023-04-08T08:17:02;100179.81;;;11.44;59.36
26635;BME280;14490;54.208;37.686;2023-04-08T08:19:31;100186.09;;;11.32;58.90
26635;BME280;14490;54.208;37.686;2023-04-08T08:22:00;100196.63;;;11.11;58.64
26635;BME280;14490;54.208;37.686;2023-04-08T08:24:30;100184.75;;;11.14;59.26
26635;BME280;14490;54.208;37.686;2023-04-08T08:27:00;100178.97;;;11.31;60.68
26635;BME280;14490;54.208;37.686;2023-04-08T08:29:35;100171.22;;;11.39;60.17
26635;BME280;14490;54.208;37.686;2023-04-08T08:32:02;100181.53;;;11.69;61.00
26635;BME280;14490;54.208;37.686;2023-04-08T08:34:34;100179.53;;;11.83;58.87
26635;BME280;14490;54.208;37.686;2023-04-08T08:37:06;100188.38;;;11.85;56.22
26635;BME280;14490;54.208;37.686;2023-04-08T08:39:54;100140.88;;;11.48;55.20
26635;BME280;14490;54.208;37.686;2023-04-08T08:42:23;100128.94;;;11.63;55.66
26635;BME280;14490;54.208;37.686;2023-04-08T08:44:51;100183.06;;;12.07;56.04
26635;BME280;14490;54.208;37.686;2023-04-08T08:47:20;100174.22;;;12.05;55.71
26635;BME280;14490;54.208;37.686;2023-04-08T08:49:49;100172.09;;;12.33;57.27
26635;BME280;14490;54.208;37.686;2023-04-08T08:52:20;100171.13;;;12.45;56.55
26635;BME280;14490;54.208;37.686;2023-04-08T08:54:47;100175.03;;;12.41;56.64
26635;BME280;14490;54.208;37.686;2023-04-08T08:57:18;100166.47;;;12.58;57.78
26635;BME280;14490;54.208;37.686;2023-04-08T08:59:46;100169.44;;;12.55;56.83
26635;BME280;14490;54.208;37.686;2023-04-08T09:02:24;100167.47;;;12.46;55.49
26635;BME280;14490;54.208;37.686;2023-04-08T09:04:59;100164.94;;;12.21;53.99
26635;BME280;14490;54.208;37.686;2023-04-08T09:07:28;100170.34;;;12.21;55.10
26635;BME280;14490;54.208;37.686;2023-04-08T09:09:58;100163.00;;;12.34;54.50
26635;BME280;14490;54.208;37.686;2023-04-08T09:12:26;100163.75;;;12.47;53.67
26635;BME280;14490;54.208;37.686;2023-04-08T09:15:05;100171.25;;;12.66;54.67
26635;BME280;14490;54.208;37.686;2023-04-08T09:17:34;100150.75;;;12.74;54.65
26635;BME280;14490;54.208;37.686;2023-04-08T09:20:06;100169.31;;;13.01;53.66
26635;BME280;14490;54.208;37.686;2023-04-08T09:22:56;100137.28;;;12.85;53.01
26635;BME280;14490;54.208;37.686;2023-04-08T09:25:25;100161.81;;;12.71;52.09
26635;BME280;14490;54.208;37.686;2023-04-08T09:27:53;100164.03;;;12.55;52.80
26635;BME280;14490;54.208;37.686;2023-04-08T09:30:22;100167.22;;;12.71;53.70
26635;BME280;14490;54.208;37.686;2023-04-08T09:32:52;100161.31;;;12.77;53.02
26635;BME280;14490;54.208;37.686;2023-04-08T09:35:23;100156.78;;;13.00;53.62
26635;BME280;14490;54.208;37.686;2023-04-08T09:37:51;100134.53;;;12.96;54.19
26635;BME280;14490;54.208;37.686;2023-04-08T09:40:18;100148.16;;;13.17;55.51
26635;BME280;14490;54.208;37.686;2023-04-08T09:42:47;100154.34;;;13.19;55.71
26635;BME280;14490;54.208;37.686;2023-04-08T09:45:17;100141.41;;;13.34;58.37
26635;BME280;14490;54.208;37.686;2023-04-08T09:47:54;100158.28;;;13.58;57.28
26635;BME280;14490;54.208;37.686;2023-04-08T09:50:26;100129.09;;;13.30;56.83
26635;BME280;14490;54.208;37.686;2023-04-08T09:53:01;100145.59;;;13.16;56.48
26635;BME280;14490;54.208;37.686;2023-04-08T09:55:36;100157.50;;;13.24;57.49
26635;BME280;14490;54.208;37.686;2023-04-08T09:58:10;100143.38;;;13.21;56.80
26635;BME280;14490;54.208;37.686;2023-04-08T10:00:46;100078.34;;;12.68;57.45
26635;BME280;14490;54.208;37.686;2023-04-08T10:03:26;100160.59;;;12.97;57.81
26635;BME280;14490;54.208;37.686;2023-04-08T10:05:57;100155.91;;;12.99;57.89
26635;BME280;14490;54.208;37.686;2023-04-08T10:08:28;100120.56;;;12.91;59.66
26635;BME280;14490;54.208;37.686;2023-04-08T10:10:57;100156.13;;;13.30;61.34
26635;BME280;14490;54.208;37.686;2023-04-08T10:13:25;100134.22;;;13.44;61.44
26635;BME280;14490;54.208;37.686;2023-04-08T10:16:17;100159.19;;;13.68;60.88
26635;BME280;14490;54.208;37.686;2023-04-08T10:18:49;100115.34;;;13.33;58.81
26635;BME280;14490;54.208;37.686;2023-04-08T10:21:35;100144.09;;;13.65;60.44
26635;BME280;14490;54.208;37.686;2023-04-08T10:24:08;100130.31;;;13.68;60.24
26635;BME280;14490;54.208;37.686;2023-04-08T10:26:40;100112.25;;;13.69;60.40
26635;BME280;14490;54.208;37.686;2023-04-08T10:29:32;100146.97;;;14.05;60.17
26635;BME280;14490;54.208;37.686;2023-04-08T10:31:59;100158.75;;;14.15;59.32
26635;BME280;14490;54.208;37.686;2023-04-08T10:34:27;100157.63;;;14.18;58.89
26635;BME280;14490;54.208;37.686;2023-04-08T10:36:57;100153.94;;;14.19;58.99
26635;BME280;14490;54.208;37.686;2023-04-08T10:39:29;100128.81;;;14.17;60.84
26635;BME280;14490;54.208;37.686;2023-04-08T10:42:00;100146.69;;;14.40;60.46
26635;BME280;14490;54.208;37.686;2023-04-08T10:44:29;100109.66;;;14.30;59.32
26635;BME280;14490;54.208;37.686;2023-04-08T10:46:57;100144.31;;;14.47;57.04
26635;BME280;14490;54.208;37.686;2023-04-08T10:49:32;100131.84;;;14.35;56.71
26635;BME280;14490;54.208;37.686;2023-04-08T10:52:07;100141.47;;;14.48;56.82
26635;BME280;14490;54.208;37.686;2023-04-08T10:54:35;100119.88;;;14.37;55.67
26635;BME280;14490;54.208;37.686;2023-04-08T10:57:04;100134.41;;;14.66;55.70
26635;BME280;14490;54.208;37.686;2023-04-08T10:59:32;100131.44;;;14.69;55.88
26635;BME280;14490;54.208;37.686;2023-04-08T11:01:59;100130.78;;;14.77;55.49
26635;BME280;14490;54.208;37.686;2023-04-08T11:04:26;100122.81;;;14.85;54.65
26635;BME280;14490;54.208;37.686;2023-04-08T11:06:54;100129.28;;;15.03;55.25
26635;BME280;14490;54.208;37.686;2023-04-08T11:09:24;100103.06;;;15.13;54.36
26635;BME280;14490;54.208;37.686;2023-04-08T11:11:52;100125.13;;;15.49;53.17
26635;BME280;14490;54.208;37.686;2023-04-08T11:14:22;100103.84;;;15.54;53.11
26635;BME280;14490;54.208;37.686;2023-04-08T11:16:50;100117.00;;;15.87;52.41
26635;BME280;14490;54.208;37.686;2023-04-08T11:19:18;100130.84;;;15.94;52.02
26635;BME280;14490;54.208;37.686;2023-04-08T11:21:47;100125.28;;;15.95;50.48
26635;BME280;14490;54.208;37.686;2023-04-08T11:24:15;100108.44;;;15.92;50.27
26635;BME280;14490;54.208;37.686;2023-04-08T11:26:44;100121.56;;;15.96;50.15
26635;BME280;14490;54.208;37.686;2023-04-08T11:29:11;100087.75;;;15.62;49.30
26635;BME280;14490;54.208;37.686;2023-04-08T11:31:42;100117.16;;;15.76;50.38
26635;BME280;14490;54.208;37.686;2023-04-08T11:34:21;100097.72;;;15.52;50.12
26635;BME280;14490;54.208;37.686;2023-04-08T11:36:49;100109.94;;;15.37;50.91
26635;BME280;14490;54.208;37.686;2023-04-08T11:39:24;100109.06;;;15.26;50.41
26635;BME280;14490;54.208;37.686;2023-04-08T11:41:53;100099.06;;;15.17;50.18
26635;BME280;14490;54.208;37.686;2023-04-08T11:44:29;100090.38;;;15.23;51.08
26635;BME280;14490;54.208;37.686;2023-04-08T11:46:58;100059.28;;;15.27;51.10
26635;BME280;14490;54.208;37.686;2023-04-08T11:49:28;100100.84;;;15.66;51.09
26635;BME280;14490;54.208;37.686;2023-04-08T11:52:09;100100.00;;;15.66;51.04
26635;BME280;14490;54.208;37.686;2023-04-08T11:54:41;100102.00;;;15.54;50.21
26635;BME280;14490;54.208;37.686;2023-04-08T11:57:10;100093.44;;;15.59;50.72
26635;BME280;14490;54.208;37.686;2023-04-08T11:59:39;100084.59;;;15.76;50.93
26635;BME280;14490;54.208;37.686;2023-04-08T12:02:06;100088.56;;;15.91;49.99
26635;BME280;14490;54.208;37.686;2023-04-08T12:04:34;100088.25;;;16.13;49.81
26635;BME280;14490;54.208;37.686;2023-04-08T12:07:01;100076.63;;;16.30;50.24
26635;BME280;14490;54.208;37.686;2023-04-08T12:09:29;100060.22;;;16.22;48.22
26635;BME280;14490;54.208;37.686;2023-04-08T12:11:56;100062.63;;;16.25;47.23
26635;BME280;14490;54.208;37.686;2023-04-08T12:14:25;100067.75;;;16.38;46.47
26635;BME280;14490;54.208;37.686;2023-04-08T12:16:52;100082.44;;;16.55;45.62
26635;BME280;14490;54.208;37.686;2023-04-08T12:19:19;100082.84;;;16.60;45.19
26635;BME280;14490;54.208;37.686;2023-04-08T12:21:47;100067.38;;;16.51;44.56
26635;BME280;14490;54.208;37.686;2023-04-08T12:24:14;100056.81;;;16.48;44.17
26635;BME280;14490;54.208;37.686;2023-04-08T12:26:42;100080.97;;;16.51;43.56
26635;BME280;14490;54.208;37.686;2023-04-08T12:29:09;100078.72;;;16.56;43.94
26635;BME280;14490;54.208;37.686;2023-04-08T12:31:38;100061.66;;;16.54;43.92
26635;BME280;14490;54.208;37.686;2023-04-08T12:34:06;100071.19;;;16.77;44.10
26635;BME280;14490;54.208;37.686;2023-04-08T12:36:33;100036.50;;;16.52;43.70
26635;BME280;14490;54.208;37.686;2023-04-08T12:39:00;100071.66;;;16.63;44.08
26635;BME280;14490;54.208;37.686;2023-04-08T12:41:28;100040.22;;;16.51;44.27
26635;BME280;14490;54.208;37.686;2023-04-08T12:43:55;100049.09;;;16.53;44.05
26635;BME280;14490;54.208;37.686;2023-04-08T12:46:23;100065.63;;;16.69;43.98
26635;BME280;14490;54.208;37.686;2023-04-08T12:48:54;100038.34;;;16.61;43.37
26635;BME280;14490;54.208;37.686;2023-04-08T12:51:22;100060.31;;;16.77;43.32
26635;BME280;14490;54.208;37.686;2023-04-08T12:53:50;100068.16;;;16.80;43.84
26635;BME280;14490;54.208;37.686;2023-04-08T12:56:17;100057.59;;;16.77;43.92